»·PEaware :: UAL2393 KIAD-KJFK

UAL2393 :: KIAD-KJFK

FLIGHT INFORMATION

Flight Status: Arrived
Operator:
United Airlines
More flights by this operator :: More flights under this callsign
Pilot: Britt B. (44161)
Aircraft: BOEING 737-800
(B738)
More flights by this aircraft type
Origin: KIAD Washington Dulles Intl
United States
Destination: KJFK Kennedy Intl
United States
More flights between these airports :: More routes between these airports
Route: JCOBY4 AGARD DONIL/N0402F170 V229 PANZE V44 CAMRN
File this flight plan on PilotEdge
Remarks: RMK / SIMBRIEF
Altitude:
(Current/Filed)
31,000ft
Speed:
(Current/Filed)
473kts
Departed: 15-Jun-23 01:45 PM
Arrived: 15-Jun-23 02:29 PM
Distance/Time
Traveled:
198nm/0:43
Distance/Time
To Go:
Arrived

Flight Plot

Page will automatically refresh every two minutes.

Flight plan parsing failed; only flown route is shown


Map Options




Map Legend


Flown Route
Filed Route
Departure Airport
Arrival Airport
Navaid (VOR, NDB)
Fix

Horizontal Profiles

Position Reports

Time Latitude Longitude Heading Altitude Ground
Speed
15-Jun-23 13:22 38.944981 -77.450926 353 320ft 0kts
15-Jun-23 13:23 38.944981 -77.450926 353 320ft 0kts
15-Jun-23 13:24 38.944981 -77.450926 353 320ft 0kts
15-Jun-23 13:25 38.944981 -77.450926 353 320ft 0kts
15-Jun-23 13:26 38.944981 -77.450926 353 320ft 0kts
15-Jun-23 13:27 38.944981 -77.450926 353 320ft 0kts
15-Jun-23 13:28 38.944981 -77.450926 353 320ft 0kts
15-Jun-23 13:29 38.944981 -77.450926 353 320ft 0kts
15-Jun-23 13:30 38.944981 -77.450926 353 320ft 0kts
15-Jun-23 13:31 38.944981 -77.450926 353 320ft 0kts
15-Jun-23 13:32 38.944981 -77.450926 353 320ft 0kts
15-Jun-23 13:33 38.944981 -77.450926 353 320ft 0kts
15-Jun-23 13:34 38.944981 -77.450926 353 320ft 0kts
15-Jun-23 13:35 38.944948 -77.450921 353 320ft 2kts
15-Jun-23 13:36 38.944512 -77.450855 352 320ft 2kts
15-Jun-23 13:37 38.944166 -77.450364 273 320ft 0kts
15-Jun-23 13:38 38.944167 -77.450265 269 320ft 0kts
15-Jun-23 13:39 38.944167 -77.450265 269 320ft 0kts
15-Jun-23 13:40 38.944167 -77.450265 269 320ft 0kts
15-Jun-23 13:41 38.943444 -77.456151 176 320ft 27kts
15-Jun-23 13:42 38.935911 -77.454988 187 320ft 27kts
15-Jun-23 13:43 38.934045 -77.457329 290 320ft 36kts
15-Jun-23 13:44 38.954477 -77.508549 310 2182ft 202kts
15-Jun-23 13:45 38.993417 -77.568377 308 5150ft 252kts
15-Jun-23 13:46 39.053441 -77.605416 11 7925ft 281kts
15-Jun-23 13:47 39.097548 -77.528533 88 10736ft 304kts
15-Jun-23 13:48 39.102462 -77.427174 85 13329ft 318kts
15-Jun-23 13:49 39.146035 -77.326412 73 16132ft 354kts
15-Jun-23 13:50 39.143854 -77.212612 115 18855ft 349kts
15-Jun-23 13:51 39.123617 -77.093416 109 21606ft 369kts
15-Jun-23 13:52 39.099582 -76.964271 119 24443ft 374kts
15-Jun-23 13:53 39.062490 -76.839581 120 27313ft 385kts
15-Jun-23 13:54 39.025956 -76.717416 121 30064ft 403kts
15-Jun-23 13:55 39.009285 -76.569929 97 30959ft 496kts
15-Jun-23 13:56 39.010889 -76.408409 91 30784ft 501kts
15-Jun-23 13:57 39.025862 -76.250603 90 30801ft 502kts
15-Jun-23 13:58 39.041592 -76.088910 90 30799ft 502kts
15-Jun-23 13:59 39.050062 -75.924714 94 30800ft 498kts
15-Jun-23 14:00 39.057338 -75.761115 94 30797ft 498kts
15-Jun-23 14:01 39.063937 -75.604110 86 31003ft 452kts
15-Jun-23 14:02 39.070562 -75.448222 86 30892ft 470kts
15-Jun-23 14:03 39.081932 -75.294227 72 29487ft 465kts
15-Jun-23 14:04 39.150685 -75.162447 55 29479ft 438kts
15-Jun-23 14:05 39.218159 -75.034613 56 29497ft 438kts
15-Jun-23 14:06 39.286501 -74.903479 56 28407ft 448kts
15-Jun-23 14:07 39.354763 -74.771903 56 26513ft 420kts
15-Jun-23 14:08 39.422475 -74.640833 56 24756ft 420kts
15-Jun-23 14:09 39.491230 -74.510731 54 23194ft 409kts
15-Jun-23 14:10 39.558578 -74.386182 54 21288ft 394kts
15-Jun-23 14:11 39.620118 -74.271937 55 19490ft 384kts
15-Jun-23 14:12 39.682410 -74.162914 43 17764ft 371kts
15-Jun-23 14:13 39.759367 -74.075912 40 16207ft 367kts
15-Jun-23 14:14 39.835377 -73.992260 35 14900ft 352kts
15-Jun-23 14:15 39.914757 -73.933556 28 13711ft 392kts
15-Jun-23 14:16 40.004467 -73.869937 28 11902ft 348kts
15-Jun-23 14:17 40.088557 -73.825309 20 11351ft 301kts
15-Jun-23 14:18 40.160413 -73.789429 20 11416ft 282kts
15-Jun-23 14:19 40.233701 -73.752813 20 11419ft 283kts
15-Jun-23 14:20 40.306435 -73.716314 20 10602ft 284kts
15-Jun-23 14:21 40.376113 -73.681264 20 8679ft 271kts
15-Jun-23 14:22 40.442971 -73.647559 20 6746ft 259kts
15-Jun-23 14:23 40.506697 -73.615365 20 4581ft 252kts
15-Jun-23 14:24 40.570545 -73.612010 327 2417ft 242kts
15-Jun-23 14:25 40.601640 -73.667193 300 2118ft 176kts
15-Jun-23 14:26 40.621565 -73.710568 300 1513ft 157kts
15-Jun-23 14:27 40.640168 -73.751902 301 176ft 149kts
15-Jun-23 14:28 40.652274 -73.778730 248 21ft 23kts
15-Jun-23 14:29 40.650760 -73.780465 229 21ft 9kts
15-Jun-23 14:30 40.650375 -73.781660 246 21ft 0kts
15-Jun-23 14:31 40.650375 -73.781660 246 21ft 0kts
15-Jun-23 14:32 40.650375 -73.781660 246 21ft 0kts

Navigation Log

Ident Type
Flight plan parsing failed, navigation log unavailable